sensor_id;sensor_type;location;lat;lon;timestamp;P1;durP1;ratioP1;P2;durP2;ratioP2
27758;SDS011;15148;48.972;12.794;2023-02-22T00:02:25;3.33;;;2.40;;
27758;SDS011;15148;48.972;12.794;2023-02-22T00:07:29;3.90;;;2.33;;
27758;SDS011;15148;48.972;12.794;2023-02-22T00:12:31;3.40;;;2.10;;
27758;SDS011;15148;48.972;12.794;2023-02-22T00:17:33;3.00;;;2.42;;
27758;SDS011;15148;48.972;12.794;2023-02-22T00:22:35;5.05;;;3.28;;
27758;SDS011;15148;48.972;12.794;2023-02-22T00:27:37;2.95;;;2.63;;
27758;SDS011;15148;48.972;12.794;2023-02-22T00:32:38;3.33;;;2.42;;
27758;SDS011;15148;48.972;12.794;2023-02-22T00:37:40;2.50;;;2.30;;
27758;SDS011;15148;48.972;12.794;2023-02-22T00:42:42;4.13;;;2.28;;
27758;SDS011;15148;48.972;12.794;2023-02-22T00:47:46;5.93;;;2.67;;
27758;SDS011;15148;48.972;12.794;2023-02-22T00:52:49;5.28;;;2.80;;
27758;SDS011;15148;48.972;12.794;2023-02-22T00:57:52;6.53;;;3.95;;
27758;SDS011;15148;48.972;12.794;2023-02-22T01:02:54;5.40;;;3.53;;
27758;SDS011;15148;48.972;12.794;2023-02-22T01:07:57;5.32;;;3.70;;
27758;SDS011;15148;48.972;12.794;2023-02-22T01:13:00;6.38;;;3.10;;
27758;SDS011;15148;48.972;12.794;2023-02-22T01:18:08;8.07;;;4.53;;
27758;SDS011;15148;48.972;12.794;2023-02-22T01:23:12;6.70;;;3.33;;
27758;SDS011;15148;48.972;12.794;2023-02-22T01:28:14;6.57;;;3.80;;
27758;SDS011;15148;48.972;12.794;2023-02-22T01:33:16;5.38;;;2.63;;
27758;SDS011;15148;48.972;12.794;2023-02-22T01:38:18;6.30;;;2.63;;
27758;SDS011;15148;48.972;12.794;2023-02-22T01:43:24;4.97;;;2.45;;
27758;SDS011;15148;48.972;12.794;2023-02-22T01:53:46;1.80;;;1.70;;
27758;SDS011;15148;48.972;12.794;2023-02-22T01:58:54;2.03;;;1.50;;
27758;SDS011;15148;48.972;12.794;2023-02-22T02:04:00;1.83;;;1.23;;
27758;SDS011;15148;48.972;12.794;2023-02-22T02:14:23;3.65;;;1.25;;
27758;SDS011;15148;48.972;12.794;2023-02-22T02:19:38;3.97;;;1.23;;
27758;SDS011;15148;48.972;12.794;2023-02-22T02:24:50;1.45;;;1.10;;
27758;SDS011;15148;48.972;12.794;2023-02-22T02:41:16;2.30;;;1.60;;
27758;SDS011;15148;48.972;12.794;2023-02-22T02:46:35;1.67;;;1.35;;
27758;SDS011;15148;48.972;12.794;2023-02-22T02:51:47;2.53;;;1.38;;
27758;SDS011;15148;48.972;12.794;2023-02-22T02:56:55;2.83;;;1.25;;
27758;SDS011;15148;48.972;12.794;2023-02-22T03:07:24;0.88;;;0.88;;
27758;SDS011;15148;48.972;12.794;2023-02-22T03:12:47;1.08;;;1.08;;
27758;SDS011;15148;48.972;12.794;2023-02-22T03:18:33;2.13;;;1.45;;
27758;SDS011;15148;48.972;12.794;2023-02-22T03:29:12;2.58;;;1.10;;
27758;SDS011;15148;48.972;12.794;2023-02-22T03:34:20;1.10;;;1.00;;
27758;SDS011;15148;48.972;12.794;2023-02-22T03:39:28;2.55;;;0.88;;
27758;SDS011;15148;48.972;12.794;2023-02-22T03:44:32;2.97;;;1.35;;
27758;SDS011;15148;48.972;12.794;2023-02-22T03:49:42;1.42;;;0.90;;
27758;SDS011;15148;48.972;12.794;2023-02-22T03:54:52;2.60;;;1.52;;
27758;SDS011;15148;48.972;12.794;2023-02-22T03:59:54;1.42;;;1.33;;
27758;SDS011;15148;48.972;12.794;2023-02-22T04:04:56;1.67;;;1.50;;
27758;SDS011;15148;48.972;12.794;2023-02-22T04:09:59;1.75;;;1.65;;
27758;SDS011;15148;48.972;12.794;2023-02-22T04:15:04;1.92;;;1.67;;
27758;SDS011;15148;48.972;12.794;2023-02-22T04:20:08;2.10;;;1.77;;
27758;SDS011;15148;48.972;12.794;2023-02-22T04:25:19;3.28;;;2.03;;
27758;SDS011;15148;48.972;12.794;2023-02-22T04:30:23;5.55;;;1.30;;
27758;SDS011;15148;48.972;12.794;2023-02-22T04:35:26;2.90;;;1.35;;
27758;SDS011;15148;48.972;12.794;2023-02-22T04:40:28;3.15;;;1.70;;
27758;SDS011;15148;48.972;12.794;2023-02-22T04:45:30;1.65;;;1.55;;
27758;SDS011;15148;48.972;12.794;2023-02-22T04:50:33;3.80;;;1.95;;
27758;SDS011;15148;48.972;12.794;2023-02-22T04:55:36;3.75;;;2.53;;
27758;SDS011;15148;48.972;12.794;2023-02-22T05:00:38;4.43;;;2.55;;
27758;SDS011;15148;48.972;12.794;2023-02-22T05:05:41;5.75;;;2.85;;
27758;SDS011;15148;48.972;12.794;2023-02-22T05:10:42;4.70;;;3.22;;
27758;SDS011;15148;48.972;12.794;2023-02-22T05:15:44;5.35;;;2.83;;
27758;SDS011;15148;48.972;12.794;2023-02-22T05:20:46;6.28;;;2.20;;
27758;SDS011;15148;48.972;12.794;2023-02-22T05:25:48;4.22;;;2.72;;
27758;SDS011;15148;48.972;12.794;2023-02-22T05:30:50;6.90;;;2.80;;
27758;SDS011;15148;48.972;12.794;2023-02-22T05:35:52;6.93;;;3.38;;
27758;SDS011;15148;48.972;12.794;2023-02-22T05:40:56;5.07;;;2.83;;
27758;SDS011;15148;48.972;12.794;2023-02-22T05:45:58;5.03;;;2.60;;
27758;SDS011;15148;48.972;12.794;2023-02-22T05:50:59;4.80;;;2.17;;
27758;SDS011;15148;48.972;12.794;2023-02-22T05:56:01;3.33;;;2.70;;
27758;SDS011;15148;48.972;12.794;2023-02-22T06:01:03;5.63;;;3.20;;
27758;SDS011;15148;48.972;12.794;2023-02-22T06:06:05;3.85;;;2.53;;
27758;SDS011;15148;48.972;12.794;2023-02-22T06:11:07;3.97;;;2.65;;
27758;SDS011;15148;48.972;12.794;2023-02-22T06:16:09;6.30;;;2.03;;
27758;SDS011;15148;48.972;12.794;2023-02-22T06:21:11;2.67;;;1.75;;
27758;SDS011;15148;48.972;12.794;2023-02-22T06:26:17;3.50;;;2.05;;
27758;SDS011;15148;48.972;12.794;2023-02-22T06:31:19;6.05;;;2.20;;
27758;SDS011;15148;48.972;12.794;2023-02-22T06:36:21;3.05;;;2.22;;
27758;SDS011;15148;48.972;12.794;2023-02-22T06:41:22;2.22;;;2.03;;
27758;SDS011;15148;48.972;12.794;2023-02-22T06:46:24;4.13;;;2.75;;
27758;SDS011;15148;48.972;12.794;2023-02-22T06:51:26;2.50;;;2.28;;
27758;SDS011;15148;48.972;12.794;2023-02-22T06:56:29;4.20;;;3.33;;
27758;SDS011;15148;48.972;12.794;2023-02-22T07:01:31;2.50;;;2.17;;
27758;SDS011;15148;48.972;12.794;2023-02-22T07:06:32;2.40;;;2.20;;
27758;SDS011;15148;48.972;12.794;2023-02-22T07:11:37;4.22;;;3.58;;
27758;SDS011;15148;48.972;12.794;2023-02-22T07:16:39;4.40;;;2.95;;
27758;SDS011;15148;48.972;12.794;2023-02-22T07:21:41;4.35;;;2.10;;
27758;SDS011;15148;48.972;12.794;2023-02-22T07:26:43;5.82;;;1.98;;
27758;SDS011;15148;48.972;12.794;2023-02-22T07:31:45;2.67;;;1.85;;
27758;SDS011;15148;48.972;12.794;2023-02-22T07:36:47;6.40;;;3.38;;
27758;SDS011;15148;48.972;12.794;2023-02-22T07:41:49;2.30;;;2.10;;
27758;SDS011;15148;48.972;12.794;2023-02-22T07:47:02;2.88;;;2.20;;
27758;SDS011;15148;48.972;12.794;2023-02-22T07:52:04;2.88;;;2.40;;
27758;SDS011;15148;48.972;12.794;2023-02-22T07:57:07;4.18;;;3.05;;
27758;SDS011;15148;48.972;12.794;2023-02-22T08:02:13;3.75;;;3.22;;
27758;SDS011;15148;48.972;12.794;2023-02-22T08:07:17;3.35;;;2.53;;
27758;SDS011;15148;48.972;12.794;2023-02-22T08:12:18;3.95;;;2.97;;
27758;SDS011;15148;48.972;12.794;2023-02-22T08:17:20;4.82;;;3.00;;
27758;SDS011;15148;48.972;12.794;2023-02-22T08:22:22;3.38;;;2.55;;
27758;SDS011;15148;48.972;12.794;2023-02-22T08:27:25;3.90;;;2.67;;
27758;SDS011;15148;48.972;12.794;2023-02-22T08:32:28;3.15;;;2.70;;
27758;SDS011;15148;48.972;12.794;2023-02-22T08:37:30;3.95;;;2.95;;
27758;SDS011;15148;48.972;12.794;2023-02-22T08:42:32;3.58;;;3.10;;
27758;SDS011;15148;48.972;12.794;2023-02-22T08:47:34;9.02;;;8.23;;
27758;SDS011;15148;48.972;12.794;2023-02-22T08:52:36;7.43;;;5.90;;
27758;SDS011;15148;48.972;12.794;2023-02-22T08:57:38;8.02;;;6.28;;
27758;SDS011;15148;48.972;12.794;2023-02-22T09:02:40;7.47;;;6.80;;
27758;SDS011;15148;48.972;12.794;2023-02-22T09:07:42;7.22;;;6.20;;
27758;SDS011;15148;48.972;12.794;2023-02-22T09:12:44;5.43;;;3.90;;
27758;SDS011;15148;48.972;12.794;2023-02-22T09:17:46;7.80;;;6.75;;
27758;SDS011;15148;48.972;12.794;2023-02-22T09:22:48;8.95;;;8.02;;
27758;SDS011;15148;48.972;12.794;2023-02-22T09:27:51;5.00;;;4.25;;
27758;SDS011;15148;48.972;12.794;2023-02-22T09:32:54;4.78;;;4.18;;
27758;SDS011;15148;48.972;12.794;2023-02-22T09:37:59;6.30;;;5.03;;
27758;SDS011;15148;48.972;12.794;2023-02-22T09:49:02;3.53;;;3.17;;
27758;SDS011;15148;48.972;12.794;2023-02-22T09:54:24;4.68;;;3.20;;
27758;SDS011;15148;48.972;12.794;2023-02-22T09:59:36;4.75;;;3.63;;
27758;SDS011;15148;48.972;12.794;2023-02-22T10:04:44;5.97;;;3.88;;
27758;SDS011;15148;48.972;12.794;2023-02-22T10:10:06;4.38;;;3.97;;
27758;SDS011;15148;48.972;12.794;2023-02-22T10:26:22;3.80;;;3.00;;
27758;SDS011;15148;48.972;12.794;2023-02-22T10:31:29;4.00;;;3.60;;
27758;SDS011;15148;48.972;12.794;2023-02-22T10:36:37;3.80;;;3.38;;
27758;SDS011;15148;48.972;12.794;2023-02-22T10:41:49;3.63;;;3.28;;
27758;SDS011;15148;48.972;12.794;2023-02-22T10:46:55;4.85;;;3.78;;
27758;SDS011;15148;48.972;12.794;2023-02-22T10:52:00;5.63;;;3.70;;
27758;SDS011;15148;48.972;12.794;2023-02-22T10:57:04;4.50;;;3.65;;
27758;SDS011;15148;48.972;12.794;2023-02-22T11:07:27;5.72;;;3.90;;
27758;SDS011;15148;48.972;12.794;2023-02-22T11:12:32;3.80;;;3.40;;
27758;SDS011;15148;48.972;12.794;2023-02-22T11:17:42;4.97;;;3.60;;
27758;SDS011;15148;48.972;12.794;2023-02-22T11:22:46;4.35;;;3.70;;
27758;SDS011;15148;48.972;12.794;2023-02-22T11:28:11;3.78;;;3.47;;
27758;SDS011;15148;48.972;12.794;2023-02-22T11:33:20;3.50;;;2.90;;
27758;SDS011;15148;48.972;12.794;2023-02-22T11:38:25;3.90;;;3.22;;
27758;SDS011;15148;48.972;12.794;2023-02-22T11:43:29;4.90;;;3.40;;
27758;SDS011;15148;48.972;12.794;2023-02-22T11:48:32;5.40;;;3.28;;
27758;SDS011;15148;48.972;12.794;2023-02-22T11:53:51;4.50;;;3.90;;
27758;SDS011;15148;48.972;12.794;2023-02-22T11:59:36;4.25;;;3.25;;
27758;SDS011;15148;48.972;12.794;2023-02-22T12:04:49;6.45;;;3.83;;
27758;SDS011;15148;48.972;12.794;2023-02-22T12:15:14;4.18;;;3.50;;
27758;SDS011;15148;48.972;12.794;2023-02-22T12:20:38;3.63;;;3.28;;
27758;SDS011;15148;48.972;12.794;2023-02-22T12:26:03;4.18;;;2.88;;
27758;SDS011;15148;48.972;12.794;2023-02-22T12:31:28;3.78;;;3.00;;
27758;SDS011;15148;48.972;12.794;2023-02-22T12:36:38;3.78;;;3.00;;
27758;SDS011;15148;48.972;12.794;2023-02-22T12:41:47;4.25;;;3.25;;
27758;SDS011;15148;48.972;12.794;2023-02-22T12:46:54;3.47;;;3.17;;
27758;SDS011;15148;48.972;12.794;2023-02-22T12:52:02;6.05;;;3.78;;
27758;SDS011;15148;48.972;12.794;2023-02-22T12:57:46;6.07;;;3.58;;
27758;SDS011;15148;48.972;12.794;2023-02-22T13:13:31;4.18;;;3.60;;
27758;SDS011;15148;48.972;12.794;2023-02-22T13:18:38;4.00;;;3.60;;
27758;SDS011;15148;48.972;12.794;2023-02-22T13:24:07;4.35;;;3.72;;
27758;SDS011;15148;48.972;12.794;2023-02-22T13:29:23;5.78;;;3.85;;
27758;SDS011;15148;48.972;12.794;2023-02-22T13:34:56;3.97;;;3.28;;
27758;SDS011;15148;48.972;12.794;2023-02-22T13:51:05;3.55;;;3.25;;
27758;SDS011;15148;48.972;12.794;2023-02-22T13:56:08;3.53;;;3.22;;
27758;SDS011;15148;48.972;12.794;2023-02-22T14:01:27;4.20;;;3.35;;
27758;SDS011;15148;48.972;12.794;2023-02-22T14:06:47;4.80;;;3.80;;
27758;SDS011;15148;48.972;12.794;2023-02-22T14:11:49;3.83;;;3.17;;
27758;SDS011;15148;48.972;12.794;2023-02-22T14:22:28;4.30;;;3.35;;
27758;SDS011;15148;48.972;12.794;2023-02-22T14:27:39;5.22;;;3.47;;
27758;SDS011;15148;48.972;12.794;2023-02-22T14:32:42;3.97;;;3.50;;
27758;SDS011;15148;48.972;12.794;2023-02-22T14:37:47;4.07;;;3.28;;
27758;SDS011;15148;48.972;12.794;2023-02-22T14:43:02;4.00;;;3.38;;
27758;SDS011;15148;48.972;12.794;2023-02-22T14:53:40;5.03;;;3.40;;
27758;SDS011;15148;48.972;12.794;2023-02-22T14:58:48;3.63;;;3.28;;
27758;SDS011;15148;48.972;12.794;2023-02-22T15:03:55;3.80;;;3.28;;
27758;SDS011;15148;48.972;12.794;2023-02-22T15:09:19;3.75;;;2.90;;
27758;SDS011;15148;48.972;12.794;2023-02-22T15:14:30;3.25;;;2.83;;
27758;SDS011;15148;48.972;12.794;2023-02-22T15:19:38;5.32;;;3.78;;
27758;SDS011;15148;48.972;12.794;2023-02-22T15:24:42;3.33;;;3.03;;
27758;SDS011;15148;48.972;12.794;2023-02-22T15:29:44;3.72;;;2.88;;
27758;SDS011;15148;48.972;12.794;2023-02-22T15:34:47;4.50;;;2.85;;
27758;SDS011;15148;48.972;12.794;2023-02-22T15:39:48;2.72;;;2.47;;
27758;SDS011;15148;48.972;12.794;2023-02-22T15:44:59;2.65;;;2.42;;
27758;SDS011;15148;48.972;12.794;2023-02-22T15:50:15;3.15;;;2.75;;
27758;SDS011;15148;48.972;12.794;2023-02-22T15:55:17;3.95;;;2.58;;
27758;SDS011;15148;48.972;12.794;2023-02-22T16:05:46;3.25;;;2.28;;
27758;SDS011;15148;48.972;12.794;2023-02-22T16:21:22;6.00;;;3.80;;
27758;SDS011;15148;48.972;12.794;2023-02-22T16:26:31;5.38;;;3.92;;
27758;SDS011;15148;48.972;12.794;2023-02-22T16:31:36;5.80;;;4.65;;
27758;SDS011;15148;48.972;12.794;2023-02-22T16:36:43;7.00;;;4.55;;
27758;SDS011;15148;48.972;12.794;2023-02-22T16:41:47;7.80;;;4.75;;
27758;SDS011;15148;48.972;12.794;2023-02-22T16:46:50;7.88;;;5.55;;
27758;SDS011;15148;48.972;12.794;2023-02-22T16:51:54;5.60;;;3.03;;
27758;SDS011;15148;48.972;12.794;2023-02-22T16:56:59;3.78;;;2.78;;
27758;SDS011;15148;48.972;12.794;2023-02-22T17:02:04;3.88;;;3.08;;
27758;SDS011;15148;48.972;12.794;2023-02-22T17:07:07;5.95;;;2.85;;
27758;SDS011;15148;48.972;12.794;2023-02-22T17:12:10;6.35;;;2.75;;
27758;SDS011;15148;48.972;12.794;2023-02-22T17:17:12;3.10;;;2.33;;
27758;SDS011;15148;48.972;12.794;2023-02-22T17:22:16;5.35;;;2.90;;
27758;SDS011;15148;48.972;12.794;2023-02-22T17:27:19;3.72;;;2.97;;
27758;SDS011;15148;48.972;12.794;2023-02-22T17:32:21;6.47;;;3.00;;
27758;SDS011;15148;48.972;12.794;2023-02-22T17:37:23;6.82;;;3.90;;
27758;SDS011;15148;48.972;12.794;2023-02-22T17:42:25;3.80;;;3.35;;
27758;SDS011;15148;48.972;12.794;2023-02-22T17:47:27;6.50;;;3.40;;
27758;SDS011;15148;48.972;12.794;2023-02-22T17:52:29;8.13;;;3.90;;
27758;SDS011;15148;48.972;12.794;2023-02-22T17:57:31;3.58;;;3.28;;
27758;SDS011;15148;48.972;12.794;2023-02-22T18:02:33;3.55;;;2.97;;
27758;SDS011;15148;48.972;12.794;2023-02-22T18:07:35;5.32;;;3.58;;
27758;SDS011;15148;48.972;12.794;2023-02-22T18:12:37;13.63;;;10.15;;
27758;SDS011;15148;48.972;12.794;2023-02-22T18:17:39;19.70;;;13.88;;
27758;SDS011;15148;48.972;12.794;2023-02-22T18:22:42;8.23;;;5.90;;
27758;SDS011;15148;48.972;12.794;2023-02-22T18:27:44;4.18;;;3.78;;
27758;SDS011;15148;48.972;12.794;2023-02-22T18:32:46;5.80;;;3.15;;
27758;SDS011;15148;48.972;12.794;2023-02-22T18:37:48;6.55;;;4.15;;
27758;SDS011;15148;48.972;12.794;2023-02-22T18:42:50;5.25;;;4.00;;
27758;SDS011;15148;48.972;12.794;2023-02-22T18:47:51;4.40;;;3.30;;
27758;SDS011;15148;48.972;12.794;2023-02-22T18:52:53;4.63;;;3.00;;
27758;SDS011;15148;48.972;12.794;2023-02-22T18:57:55;11.02;;;9.93;;
27758;SDS011;15148;48.972;12.794;2023-02-22T19:02:58;5.55;;;4.90;;
27758;SDS011;15148;48.972;12.794;2023-02-22T19:08:01;5.25;;;3.20;;
27758;SDS011;15148;48.972;12.794;2023-02-22T19:13:03;3.17;;;2.85;;
27758;SDS011;15148;48.972;12.794;2023-02-22T19:18:10;4.67;;;3.10;;
27758;SDS011;15148;48.972;12.794;2023-02-22T19:23:13;4.28;;;2.85;;
27758;SDS011;15148;48.972;12.794;2023-02-22T19:28:15;7.32;;;4.93;;
27758;SDS011;15148;48.972;12.794;2023-02-22T19:33:16;4.13;;;3.47;;
27758;SDS011;15148;48.972;12.794;2023-02-22T19:38:18;14.70;;;11.65;;
27758;SDS011;15148;48.972;12.794;2023-02-22T19:43:20;8.27;;;5.18;;
27758;SDS011;15148;48.972;12.794;2023-02-22T19:48:22;4.15;;;2.95;;
27758;SDS011;15148;48.972;12.794;2023-02-22T19:53:24;5.88;;;2.97;;
27758;SDS011;15148;48.972;12.794;2023-02-22T19:58:26;4.40;;;3.10;;
27758;SDS011;15148;48.972;12.794;2023-02-22T20:03:29;2.83;;;2.45;;
27758;SDS011;15148;48.972;12.794;2023-02-22T20:08:35;3.57;;;2.93;;
27758;SDS011;15148;48.972;12.794;2023-02-22T20:13:42;3.13;;;2.83;;
27758;SDS011;15148;48.972;12.794;2023-02-22T20:18:45;2.92;;;2.70;;
27758;SDS011;15148;48.972;12.794;2023-02-22T20:23:47;3.58;;;2.90;;
27758;SDS011;15148;48.972;12.794;2023-02-22T20:28:50;3.33;;;2.90;;
27758;SDS011;15148;48.972;12.794;2023-02-22T20:33:53;3.03;;;2.65;;
27758;SDS011;15148;48.972;12.794;2023-02-22T20:38:58;2.47;;;2.28;;
27758;SDS011;15148;48.972;12.794;2023-02-22T20:44:01;3.85;;;2.10;;
27758;SDS011;15148;48.972;12.794;2023-02-22T20:49:04;5.03;;;2.65;;
27758;SDS011;15148;48.972;12.794;2023-02-22T20:59:15;3.10;;;2.60;;
27758;SDS011;15148;48.972;12.794;2023-02-22T21:04:18;3.97;;;2.60;;
27758;SDS011;15148;48.972;12.794;2023-02-22T21:09:23;2.70;;;2.28;;
27758;SDS011;15148;48.972;12.794;2023-02-22T21:14:25;5.15;;;2.60;;
27758;SDS011;15148;48.972;12.794;2023-02-22T21:19:28;3.42;;;3.10;;
27758;SDS011;15148;48.972;12.794;2023-02-22T21:24:32;3.90;;;2.88;;
27758;SDS011;15148;48.972;12.794;2023-02-22T21:29:37;5.20;;;3.10;;
27758;SDS011;15148;48.972;12.794;2023-02-22T21:34:39;2.92;;;2.45;;
27758;SDS011;15148;48.972;12.794;2023-02-22T21:39:41;3.65;;;2.33;;
27758;SDS011;15148;48.972;12.794;2023-02-22T21:44:47;5.45;;;2.75;;
27758;SDS011;15148;48.972;12.794;2023-02-22T21:49:54;3.10;;;2.55;;
27758;SDS011;15148;48.972;12.794;2023-02-22T21:54:56;3.03;;;2.45;;
27758;SDS011;15148;48.972;12.794;2023-02-22T21:59:58;5.25;;;2.40;;
27758;SDS011;15148;48.972;12.794;2023-02-22T22:05:00;5.47;;;2.70;;
27758;SDS011;15148;48.972;12.794;2023-02-22T22:10:01;3.78;;;2.67;;
27758;SDS011;15148;48.972;12.794;2023-02-22T22:15:07;5.00;;;2.50;;
27758;SDS011;15148;48.972;12.794;2023-02-22T22:20:10;3.17;;;2.47;;
27758;SDS011;15148;48.972;12.794;2023-02-22T22:25:16;3.35;;;2.53;;
27758;SDS011;15148;48.972;12.794;2023-02-22T22:30:19;3.15;;;2.10;;
27758;SDS011;15148;48.972;12.794;2023-02-22T22:35:21;3.25;;;2.50;;
27758;SDS011;15148;48.972;12.794;2023-02-22T22:40:22;3.28;;;2.72;;
27758;SDS011;15148;48.972;12.794;2023-02-22T22:45:24;3.47;;;2.60;;
27758;SDS011;15148;48.972;12.794;2023-02-22T22:50:26;2.85;;;2.47;;
27758;SDS011;15148;48.972;12.794;2023-02-22T22:55:29;4.18;;;2.70;;
27758;SDS011;15148;48.972;12.794;2023-02-22T23:00:30;3.90;;;2.85;;
27758;SDS011;15148;48.972;12.794;2023-02-22T23:05:36;3.00;;;2.70;;
27758;SDS011;15148;48.972;12.794;2023-02-22T23:10:40;4.10;;;2.50;;
27758;SDS011;15148;48.972;12.794;2023-02-22T23:15:42;2.67;;;2.35;;
27758;SDS011;15148;48.972;12.794;2023-02-22T23:20:48;3.40;;;2.65;;
27758;SDS011;15148;48.972;12.794;2023-02-22T23:26:02;3.70;;;2.80;;
27758;SDS011;15148;48.972;12.794;2023-02-22T23:31:12;3.38;;;3.08;;
27758;SDS011;15148;48.972;12.794;2023-02-22T23:36:16;3.38;;;2.60;;
27758;SDS011;15148;48.972;12.794;2023-02-22T23:41:19;3.50;;;2.38;;
27758;SDS011;15148;48.972;12.794;2023-02-22T23:46:22;3.17;;;2.47;;
27758;SDS011;15148;48.972;12.794;2023-02-22T23:51:28;5.55;;;3.20;;
27758;SDS011;15148;48.972;12.794;2023-02-22T23:56:39;4.38;;;3.67;;
